createdAt,value
2018-04-23T00:01:57.948Z,43.04
2018-04-23T00:04:28.515Z,42.69
2018-04-23T00:06:57.255Z,43.15
2018-04-23T00:09:25.671Z,43.43
2018-04-23T00:11:54.215Z,43.09
2018-04-23T00:14:22.662Z,43.31
2018-04-23T00:16:51.088Z,43.30
2018-04-23T00:19:19.548Z,43.21
2018-04-23T00:21:48.096Z,43.34
2018-04-23T00:24:16.558Z,43.42
2018-04-23T00:26:47.041Z,43.67
2018-04-23T00:29:17.544Z,44.57
2018-04-23T00:31:45.969Z,44.54
2018-04-23T00:34:16.569Z,44.82
2018-04-23T00:36:45.015Z,44.79
2018-04-23T00:39:13.427Z,44.66
2018-04-23T00:41:46.310Z,44.60
2018-04-23T00:44:16.827Z,44.19
2018-04-23T00:46:45.307Z,44.03
2018-04-23T00:49:13.780Z,43.17
2018-04-23T00:51:42.214Z,43.94
2018-04-23T00:54:10.956Z,44.48
2018-04-23T00:56:39.373Z,44.44
2018-04-23T00:59:07.824Z,43.87
2018-04-23T01:01:36.240Z,42.80
2018-04-23T01:04:08.838Z,42.97
2018-04-23T01:06:37.562Z,42.97
2018-04-23T01:09:05.974Z,43.75
2018-04-23T01:11:34.399Z,42.97
2018-04-23T01:14:04.900Z,42.25
2018-04-23T01:16:33.247Z,42.14
2018-04-23T01:19:01.683Z,42.19
2018-04-23T01:21:30.139Z,42.38
2018-04-23T01:24:00.716Z,41.16
2018-04-23T01:26:29.145Z,42.11
2018-04-23T01:28:57.559Z,42.44
2018-04-23T01:31:26.955Z,42.14
2018-04-23T01:33:55.778Z,41.93
2018-04-23T01:36:24.217Z,42.32
2018-04-23T01:38:52.651Z,42.16
2018-04-23T01:41:21.404Z,42.79
2018-04-23T01:43:49.810Z,42.74
2018-04-23T01:46:20.372Z,42.21
2018-04-23T01:48:48.806Z,42.12
2018-04-23T01:51:17.210Z,41.70
2018-04-23T01:53:47.788Z,40.43
2018-04-23T01:56:16.183Z,40.07
2018-04-23T01:58:46.765Z,40.85
2018-04-23T02:01:15.239Z,40.41
2018-04-23T02:03:43.684Z,40.87
2018-04-23T02:06:14.170Z,41.22
2018-04-23T02:08:42.634Z,40.98
2018-04-23T02:11:11.059Z,40.68
2018-04-23T02:13:39.475Z,41.72
2018-04-23T02:16:10.063Z,42.41
2018-04-23T02:18:38.443Z,42.66
2018-04-23T02:21:08.954Z,42.23
2018-04-23T02:23:37.413Z,41.66
2018-04-23T02:26:05.848Z,41.68
2018-04-23T02:28:36.434Z,41.49
2018-04-23T02:31:04.856Z,40.82
2018-04-23T02:33:33.625Z,40.31
2018-04-23T02:36:02.059Z,40.56
2018-04-23T02:38:30.487Z,40.66
2018-04-23T02:40:58.944Z,40.54
2018-04-23T02:43:27.349Z,40.26
2018-04-23T02:45:55.755Z,40.24
2018-04-23T02:48:24.520Z,40.00
2018-04-23T02:50:52.970Z,39.98
2018-04-23T02:53:21.384Z,40.34
2018-04-23T02:55:49.812Z,40.79
2018-04-23T02:58:18.311Z,41.10
2018-04-23T03:00:46.758Z,41.20
2018-04-23T03:03:15.174Z,40.97
2018-04-23T03:05:45.921Z,41.37
2018-04-23T03:08:14.330Z,41.41
2018-04-23T03:10:42.784Z,41.24
2018-04-23T03:13:11.187Z,40.70
2018-04-23T03:15:39.639Z,41.13
2018-04-23T03:18:10.206Z,41.11
2018-04-23T03:20:39.163Z,41.07
2018-04-23T03:23:09.746Z,41.17
2018-04-23T03:25:38.192Z,41.13
2018-04-23T03:28:09.000Z,41.25
2018-04-23T03:30:37.414Z,41.48
2018-04-23T03:33:05.819Z,41.67
2018-04-23T03:35:35.294Z,42.14
2018-04-23T03:38:03.721Z,42.76
2018-04-23T03:40:32.129Z,42.73
2018-04-23T03:43:00.638Z,42.75
2018-04-23T03:45:29.108Z,42.63
2018-04-23T03:47:57.625Z,42.50
2018-04-23T03:50:28.295Z,42.59
2018-04-23T03:52:58.887Z,42.68
2018-04-23T03:55:27.318Z,42.76
2018-04-23T03:57:55.727Z,42.50
2018-04-23T04:00:24.231Z,42.39
2018-04-23T04:02:52.886Z,42.62
2018-04-23T04:05:23.467Z,42.14
2018-04-23T04:07:51.892Z,42.34
2018-04-23T04:10:20.318Z,42.19
2018-04-23T04:12:54.938Z,41.82
2018-04-23T04:15:31.607Z,41.78
2018-04-23T04:18:17.050Z,42.06
2018-04-23T04:20:45.554Z,41.03
2018-04-23T04:23:14.108Z,40.90
2018-04-23T04:25:44.911Z,40.90
2018-04-23T04:28:13.331Z,40.70
2018-04-23T04:30:41.740Z,41.07
2018-04-23T04:33:10.243Z,40.80
2018-04-23T04:35:41.653Z,40.37
2018-04-23T04:38:10.086Z,40.53
2018-04-23T04:40:38.513Z,40.77
2018-04-23T04:43:06.935Z,40.96
2018-04-23T04:45:35.340Z,40.90
2018-04-23T04:48:03.807Z,40.57
2018-04-23T04:50:32.203Z,40.80
2018-04-23T04:53:00.647Z,40.89
2018-04-23T04:55:29.084Z,41.10
2018-04-23T04:57:59.610Z,41.05
2018-04-23T05:00:28.028Z,41.52
2018-04-23T05:02:56.537Z,41.46
2018-04-23T05:05:24.946Z,41.19
2018-04-23T05:07:55.478Z,41.43
2018-04-23T05:10:23.890Z,41.43
2018-04-23T05:12:52.688Z,41.95
2018-04-23T05:15:21.094Z,41.63
2018-04-23T05:17:49.509Z,41.53
2018-04-23T05:20:19.628Z,41.10
2018-04-23T05:22:50.020Z,41.11
2018-04-23T05:25:18.458Z,41.01
2018-04-23T05:27:46.855Z,40.78
2018-04-23T05:30:15.325Z,40.73
2018-04-23T05:32:45.758Z,40.68
2018-04-23T05:35:14.209Z,40.11
2018-04-23T05:37:42.624Z,40.12
2018-04-23T05:40:11.048Z,40.11
2018-04-23T05:42:43.104Z,39.93
2018-04-23T05:45:17.616Z,40.27
2018-04-23T05:47:48.211Z,39.66
2018-04-23T05:50:16.629Z,39.89
2018-04-23T05:52:49.068Z,38.85
2018-04-23T05:55:17.469Z,38.54
2018-04-23T05:57:45.879Z,37.69
2018-04-23T06:00:14.368Z,37.30
2018-04-23T06:02:42.857Z,37.36
2018-04-23T06:05:11.328Z,37.02
2018-04-23T06:07:39.766Z,37.16
2018-04-23T06:10:08.209Z,37.15
2018-04-23T06:12:38.700Z,37.04
2018-04-23T06:15:07.181Z,37.49
2018-04-23T06:17:35.640Z,37.91
2018-04-23T06:20:05.271Z,37.82
2018-04-23T06:22:33.734Z,37.37
2018-04-23T06:25:02.159Z,37.41
2018-04-23T06:27:30.607Z,36.57
2018-04-23T06:30:00.672Z,36.16
2018-04-23T06:32:30.479Z,35.56
2018-04-23T06:34:59.875Z,34.65
2018-04-23T06:37:30.379Z,34.23
2018-04-23T06:40:00.430Z,34.09
2018-04-23T06:42:28.840Z,33.50
2018-04-23T06:44:59.627Z,33.47
2018-04-23T06:47:28.027Z,32.82
2018-04-23T06:49:58.055Z,32.62
2018-04-23T06:52:26.488Z,32.34
2018-04-23T06:55:00.932Z,32.43
2018-04-23T06:57:29.610Z,31.89
2018-04-23T06:59:58.008Z,31.86
2018-04-23T07:02:26.477Z,31.16
2018-04-23T07:04:56.744Z,30.70
2018-04-23T07:07:25.491Z,30.11
2018-04-23T07:09:55.961Z,29.44
2018-04-23T07:12:24.403Z,28.68
2018-04-23T07:14:52.872Z,28.85
2018-04-23T07:17:21.677Z,28.01
2018-04-23T07:19:52.051Z,27.82
2018-04-23T07:22:20.455Z,26.96
2018-04-23T07:24:48.887Z,26.53
2018-04-23T07:27:19.407Z,25.71
2018-04-23T07:29:47.851Z,25.65
2018-04-23T07:32:19.975Z,25.78
2018-04-23T07:34:48.459Z,25.56
2018-04-23T07:37:16.884Z,24.74
2018-04-23T07:39:45.317Z,25.02
2018-04-23T07:42:13.719Z,24.67
2018-04-23T07:44:43.832Z,23.85
2018-04-23T07:47:13.654Z,24.04
2018-04-23T07:49:42.119Z,24.26
2018-04-23T07:52:11.145Z,23.89
2018-04-23T07:54:39.636Z,23.26
2018-04-23T07:57:08.063Z,24.30
2018-04-23T07:59:36.572Z,23.84
2018-04-23T08:02:12.652Z,23.03
2018-04-23T08:04:42.507Z,22.71
2018-04-23T08:07:13.003Z,24.13
2018-04-23T08:09:42.964Z,24.77
2018-04-23T08:12:11.430Z,25.89
2018-04-23T08:14:39.928Z,27.44
2018-04-23T08:17:09.935Z,28.00
2018-04-23T08:19:38.768Z,27.58
2018-04-23T08:22:07.188Z,28.00
2018-04-23T08:24:35.636Z,27.86
2018-04-23T08:27:04.414Z,27.10
2018-04-23T08:29:32.836Z,26.49
2018-04-23T08:32:01.278Z,26.74
2018-04-23T08:34:29.740Z,26.56
2018-04-23T08:36:58.207Z,26.40
2018-04-23T08:39:28.754Z,24.60
2018-04-23T08:41:57.434Z,24.22
2018-04-23T08:44:27.420Z,24.02
2018-04-23T08:46:55.823Z,23.73
2018-04-23T08:49:24.277Z,22.82
2018-04-23T08:51:52.893Z,22.24
2018-04-23T08:54:21.324Z,22.59
2018-04-23T08:56:51.504Z,22.79
2018-04-23T08:59:19.907Z,21.73
2018-04-23T09:01:48.346Z,21.95
2018-04-23T09:04:18.890Z,20.96
2018-04-23T09:06:47.291Z,20.92
2018-04-23T09:09:17.020Z,21.58
2018-04-23T09:11:47.404Z,22.15
2018-04-23T09:14:15.919Z,23.08
2018-04-23T09:16:44.335Z,23.55
2018-04-23T09:19:13.069Z,23.49
2018-04-23T09:21:41.480Z,24.01
2018-04-23T09:24:11.404Z,25.14
2018-04-23T09:26:39.926Z,25.93
2018-04-23T09:29:08.356Z,25.36
2018-04-23T09:31:38.345Z,24.55
2018-04-23T09:34:08.477Z,24.18
2018-04-23T09:36:38.445Z,24.95
2018-04-23T09:39:06.872Z,25.41
2018-04-23T09:41:35.298Z,26.81
2018-04-23T09:44:03.776Z,28.26
2018-04-23T09:46:32.152Z,29.34
2018-04-23T09:49:02.128Z,29.32
2018-04-23T09:51:30.606Z,29.37
2018-04-23T09:53:59.085Z,28.55
2018-04-23T09:56:29.495Z,28.87
2018-04-23T09:58:57.931Z,29.50
2018-04-23T10:01:30.212Z,29.00
2018-04-23T10:04:04.748Z,28.95
2018-04-23T10:06:34.821Z,27.92
2018-04-23T10:09:03.309Z,26.00
2018-04-23T10:11:31.851Z,26.54
2018-04-23T10:14:04.223Z,27.20
2018-04-23T10:16:32.635Z,27.62
2018-04-23T10:19:01.447Z,28.99
2018-04-23T10:21:31.924Z,29.18
2018-04-23T10:24:00.336Z,30.31
2018-04-23T10:26:28.797Z,31.20
2018-04-23T10:28:57.216Z,32.05
2018-04-23T10:31:25.719Z,32.72
2018-04-23T10:34:00.225Z,32.05
2018-04-23T10:36:31.116Z,31.98
2018-04-23T10:38:59.590Z,31.97
2018-04-23T10:41:31.723Z,32.66
2018-04-23T10:44:02.251Z,33.06
2018-04-23T10:46:30.678Z,32.56
2018-04-23T10:48:59.123Z,33.31
2018-04-23T10:51:27.538Z,33.59
2018-04-23T10:53:56.091Z,33.85
2018-04-23T10:56:24.520Z,33.51
2018-04-23T10:58:56.239Z,33.26
2018-04-23T11:01:24.676Z,32.35
2018-04-23T11:03:55.052Z,32.62
2018-04-23T11:06:27.263Z,33.61
2018-04-23T11:08:57.745Z,34.37
2018-04-23T11:11:26.183Z,35.06
2018-04-23T11:13:54.643Z,36.48
2018-04-23T11:16:25.126Z,36.68
2018-04-23T11:18:53.563Z,36.97
2018-04-23T11:21:22.042Z,38.09
2018-04-23T11:23:50.500Z,39.85
2018-04-23T11:26:18.914Z,41.03
2018-04-23T11:28:48.891Z,40.79
2018-04-23T11:31:17.259Z,42.55
2018-04-23T11:33:47.745Z,46.75
2018-04-23T11:36:16.175Z,46.04
2018-04-23T11:38:46.694Z,51.38
2018-04-23T11:41:17.246Z,51.20
2018-04-23T11:43:47.826Z,51.54
2018-04-23T11:46:20.367Z,52.85
2018-04-23T11:48:48.835Z,51.28
2018-04-23T11:51:19.383Z,54.93
2018-04-23T11:53:49.915Z,56.25
2018-04-23T11:56:18.406Z,55.97
2018-04-23T11:58:46.835Z,57.24
2018-04-23T12:01:15.351Z,57.33
2018-04-23T12:03:47.542Z,55.49
2018-04-23T12:06:15.942Z,57.48
2018-04-23T12:08:44.396Z,57.60
2018-04-23T12:11:12.919Z,57.09
2018-04-23T12:13:41.347Z,57.51
2018-04-23T12:16:11.851Z,57.67
2018-04-23T12:18:41.908Z,59.08
2018-04-23T12:21:10.348Z,58.00
2018-04-23T12:23:38.782Z,57.90
2018-04-23T12:26:07.252Z,58.20
2018-04-23T12:28:35.727Z,57.93
2018-04-23T12:31:04.175Z,59.75
2018-04-23T12:33:32.593Z,58.98
2018-04-23T12:36:03.215Z,56.93
2018-04-23T12:38:33.738Z,58.35
2018-04-23T12:41:02.227Z,58.75
2018-04-23T12:43:32.784Z,58.92
2018-04-23T12:46:01.242Z,59.50
2018-04-23T12:48:31.814Z,59.97
2018-04-23T12:51:02.442Z,60.58
2018-04-23T12:53:30.843Z,58.74
2018-04-23T12:56:03.414Z,60.62
2018-04-23T12:58:31.853Z,60.04
2018-04-23T13:01:00.300Z,59.68
2018-04-23T13:03:32.471Z,58.87
2018-04-23T13:06:02.951Z,59.11
2018-04-23T13:08:32.951Z,58.31
2018-04-23T13:11:03.451Z,60.01
2018-04-23T13:13:33.910Z,59.48
2018-04-23T13:16:02.343Z,59.69
2018-04-23T13:18:30.827Z,58.65
2018-04-23T13:20:59.199Z,59.42
2018-04-23T13:23:27.643Z,59.96
2018-04-23T13:25:57.791Z,60.85
2018-04-23T13:28:26.235Z,60.35
2018-04-23T13:30:54.656Z,60.04
2018-04-23T13:33:29.256Z,61.50
2018-04-23T13:35:59.766Z,61.72
2018-04-23T13:38:28.159Z,63.10
2018-04-23T13:40:56.634Z,62.54
2018-04-23T13:43:27.051Z,63.28
2018-04-23T13:45:55.531Z,63.05
2018-04-23T13:48:24.012Z,60.73
2018-04-23T13:50:59.694Z,60.78
2018-04-23T13:53:28.147Z,62.78
2018-04-23T13:55:56.600Z,61.61
2018-04-23T13:58:27.088Z,61.50
2018-04-23T14:00:57.789Z,61.85
2018-04-23T14:03:28.422Z,61.63
2018-04-23T14:05:56.962Z,61.67
2018-04-23T14:08:25.405Z,60.79
2018-04-23T14:10:55.504Z,59.98
2018-04-23T14:13:23.959Z,60.91
2018-04-23T14:15:52.434Z,60.42
2018-04-23T14:18:20.962Z,61.28
2018-04-23T14:20:49.431Z,61.85
2018-04-23T14:23:17.874Z,61.82
2018-04-23T14:25:48.177Z,61.73
2018-04-23T14:28:16.576Z,61.59
2018-04-23T14:30:45.021Z,62.14
2018-04-23T14:33:13.761Z,61.61
2018-04-23T14:35:47.479Z,62.31
2018-04-23T14:38:17.672Z,62.09
2018-04-23T14:40:47.619Z,61.07
2018-04-23T14:43:16.029Z,61.70
2018-04-23T14:45:44.478Z,61.80
2018-04-23T14:48:13.352Z,61.62
2018-04-23T14:50:42.744Z,60.89
2018-04-23T14:53:11.237Z,60.92
2018-04-23T14:55:39.658Z,61.04
2018-04-23T14:58:11.821Z,59.50
2018-04-23T15:00:43.657Z,59.84
2018-04-23T15:03:12.144Z,58.80
2018-04-23T15:05:40.644Z,58.54
2018-04-23T15:08:09.056Z,58.65
2018-04-23T15:10:38.226Z,57.07
2018-04-23T15:13:06.667Z,58.46
2018-04-23T15:15:35.143Z,58.85
2018-04-23T15:18:03.609Z,60.01
2018-04-23T15:20:32.399Z,59.53
2018-04-23T15:23:00.813Z,59.17
2018-04-23T15:25:31.347Z,59.80
2018-04-23T15:27:59.828Z,59.56
2018-04-23T15:30:28.258Z,58.59
2018-04-23T15:32:58.269Z,58.93
2018-04-23T15:35:26.696Z,59.96
2018-04-23T15:37:57.205Z,60.11
2018-04-23T15:40:29.238Z,60.83
2018-04-23T15:42:57.728Z,61.16
2018-04-23T15:45:26.203Z,61.48
2018-04-23T15:47:54.640Z,60.74
2018-04-23T15:50:25.206Z,61.13
2018-04-23T15:52:53.660Z,60.90
2018-04-23T15:55:22.092Z,60.96
2018-04-23T15:57:50.554Z,60.95
2018-04-23T16:00:19.293Z,60.14
2018-04-23T16:02:47.724Z,60.26
2018-04-23T16:05:16.169Z,58.79
2018-04-23T16:07:44.625Z,59.19
2018-04-23T16:10:13.046Z,59.55
2018-04-23T16:12:41.700Z,59.53
2018-04-23T16:15:10.172Z,58.75
2018-04-23T16:17:38.644Z,59.05
2018-04-23T16:20:09.236Z,59.21
2018-04-23T16:22:38.259Z,59.28
2018-04-23T16:25:08.794Z,59.57
2018-04-23T16:27:39.411Z,60.87
2018-04-23T16:30:09.930Z,60.93
2018-04-23T16:32:39.348Z,61.42
2018-04-23T16:35:07.804Z,63.98
2018-04-23T16:37:36.242Z,64.45
2018-04-23T16:40:05.017Z,64.86
2018-04-23T16:42:33.443Z,66.05
2018-04-23T16:45:01.894Z,65.50
2018-04-23T16:47:30.495Z,65.79
2018-04-23T16:50:01.056Z,66.52
2018-04-23T16:52:29.547Z,66.53
2018-04-23T16:54:58.757Z,67.74
2018-04-23T16:57:29.311Z,68.80
2018-04-23T16:59:59.788Z,67.75
2018-04-23T17:02:30.737Z,68.40
2018-04-23T17:04:59.188Z,66.74
2018-04-23T17:07:29.829Z,67.44
2018-04-23T17:09:58.316Z,68.28
2018-04-23T17:12:26.768Z,68.76
2018-04-23T17:14:55.229Z,68.74
2018-04-23T17:17:25.521Z,67.72
2018-04-23T17:19:54.012Z,67.84
2018-04-23T17:22:22.453Z,68.08
2018-04-23T17:24:50.902Z,68.44
2018-04-23T17:27:19.447Z,68.75
2018-04-23T17:29:50.439Z,68.70
2018-04-23T17:32:18.910Z,70.15
2018-04-23T17:34:49.557Z,69.27
2018-04-23T17:37:20.143Z,68.62
2018-04-23T17:39:50.779Z,68.73
2018-04-23T17:42:19.185Z,68.61
2018-04-23T17:44:51.845Z,68.60
2018-04-23T17:47:20.306Z,69.78
2018-04-23T17:49:48.814Z,70.72
2018-04-23T17:52:17.228Z,71.16
2018-04-23T17:54:45.646Z,71.05
2018-04-23T17:57:16.179Z,71.35
2018-04-23T17:59:46.781Z,71.25
2018-04-23T18:02:17.367Z,70.92
2018-04-23T18:04:45.818Z,71.71
2018-04-23T18:07:14.293Z,71.94
2018-04-23T18:09:42.940Z,72.18
2018-04-23T18:12:11.335Z,71.75
2018-04-23T18:14:41.559Z,71.29
2018-04-23T18:17:10.265Z,72.17
2018-04-23T18:19:38.680Z,72.00
2018-04-23T18:22:09.045Z,72.07
2018-04-23T18:24:37.455Z,71.92
2018-04-23T18:27:05.901Z,72.04
2018-04-23T18:29:34.295Z,72.52
2018-04-23T18:32:05.199Z,73.34
2018-04-23T18:34:33.571Z,73.94
2018-04-23T18:37:01.952Z,72.31
2018-04-23T18:39:30.399Z,72.83
2018-04-23T18:41:58.851Z,73.34
2018-04-23T18:44:27.511Z,73.51
2018-04-23T18:46:58.027Z,73.97
2018-04-23T18:49:26.400Z,73.08
2018-04-23T18:51:56.910Z,73.05
2018-04-23T18:54:25.303Z,72.93
2018-04-23T18:56:56.376Z,72.81
2018-04-23T18:59:24.807Z,72.65
2018-04-23T19:01:53.234Z,72.56
2018-04-23T19:04:23.811Z,71.86
2018-04-23T19:06:52.268Z,71.45
2018-04-23T19:09:20.686Z,71.50
2018-04-23T19:11:49.134Z,71.41
2018-04-23T19:14:17.590Z,71.64
2018-04-23T19:16:46.035Z,71.67
2018-04-23T19:19:14.547Z,71.66
2018-04-23T19:21:42.924Z,71.58
2018-04-23T19:24:13.601Z,71.43
2018-04-23T19:26:42.349Z,71.85
2018-04-23T19:29:10.739Z,72.00
2018-04-23T19:31:39.240Z,72.55
2018-04-23T19:34:07.684Z,71.74
2018-04-23T19:36:36.112Z,72.38
2018-04-23T19:39:05.780Z,71.87
2018-04-23T19:41:36.344Z,71.57
2018-04-23T19:44:04.751Z,71.37
2018-04-23T19:46:35.324Z,71.24
2018-04-23T19:49:03.796Z,71.35
2018-04-23T19:51:32.173Z,71.32
2018-04-23T19:54:00.579Z,71.09
2018-04-23T19:56:29.061Z,71.32
2018-04-23T19:58:59.715Z,71.81
2018-04-23T20:01:28.138Z,71.95
2018-04-23T20:03:58.636Z,72.50
2018-04-23T20:06:27.057Z,72.90
2018-04-23T20:08:55.440Z,73.81
2018-04-23T20:11:25.870Z,73.17
2018-04-23T20:13:56.730Z,73.53
2018-04-23T20:16:25.153Z,73.88
2018-04-23T20:18:55.699Z,74.23
2018-04-23T20:21:24.188Z,74.31
2018-04-23T20:23:54.723Z,74.06
2018-04-23T20:26:23.087Z,74.11
2018-04-23T20:28:53.961Z,74.41
2018-04-23T20:31:22.424Z,74.56
2018-04-23T20:33:50.889Z,74.06
2018-04-23T20:36:19.723Z,74.03
2018-04-23T20:38:48.104Z,73.86
2018-04-23T20:41:16.542Z,74.23
2018-04-23T20:43:47.263Z,73.85
2018-04-23T20:46:15.676Z,74.04
2018-04-23T20:48:46.213Z,73.77
2018-04-23T20:51:16.843Z,74.14
2018-04-23T20:53:45.234Z,73.91
2018-04-23T20:56:13.659Z,73.01
2018-04-23T20:58:42.074Z,73.67
2018-04-23T21:01:10.538Z,73.42
2018-04-23T21:03:38.956Z,74.02
2018-04-23T21:06:07.408Z,73.46
2018-04-23T21:08:35.835Z,73.50
2018-04-23T21:11:06.336Z,73.63
2018-04-23T21:13:34.711Z,73.37
2018-04-23T21:16:03.505Z,73.39
2018-04-23T21:18:31.890Z,74.03
2018-04-23T21:21:00.316Z,74.04
2018-04-23T21:23:28.740Z,74.00
2018-04-23T21:25:57.118Z,73.17
2018-04-23T21:28:27.692Z,73.82
2018-04-23T21:30:56.194Z,73.49
2018-04-23T21:33:24.534Z,73.19
2018-04-23T21:35:55.155Z,73.05
2018-04-23T21:38:23.555Z,72.85
2018-04-23T21:40:54.087Z,73.44
2018-04-23T21:43:24.600Z,73.46
2018-04-23T21:45:52.995Z,73.17
2018-04-23T21:48:21.368Z,73.29
2018-04-23T21:50:51.944Z,73.54
2018-04-23T21:53:20.343Z,73.80
2018-04-23T21:55:50.891Z,74.27
2018-04-23T21:58:19.259Z,73.95
2018-04-23T22:00:47.622Z,73.87
2018-04-23T22:03:18.157Z,74.05
2018-04-23T22:05:46.546Z,73.99
2018-04-23T22:08:14.907Z,73.52
2018-04-23T22:10:43.314Z,73.55
2018-04-23T22:13:11.682Z,73.56
2018-04-23T22:15:40.380Z,73.84
2018-04-23T22:18:08.804Z,74.23
2018-04-23T22:20:37.123Z,73.79
2018-04-23T22:23:05.532Z,73.80
2018-04-23T22:25:34.258Z,73.58
2018-04-23T22:28:04.817Z,73.70
2018-04-23T22:30:35.347Z,74.29
2018-04-23T22:33:03.742Z,73.98
2018-04-23T22:35:33.899Z,74.24
2018-04-23T22:38:02.362Z,73.76
2018-04-23T22:40:30.752Z,73.68
2018-04-23T22:42:59.148Z,73.89
2018-04-23T22:45:29.731Z,73.97
2018-04-23T22:47:58.351Z,74.77
2018-04-23T22:50:26.819Z,74.43
2018-04-23T22:52:57.279Z,74.34
2018-04-23T22:55:25.652Z,74.70
2018-04-23T22:57:56.180Z,74.82
2018-04-23T23:00:24.635Z,74.77
2018-04-23T23:02:53.079Z,74.74
2018-04-23T23:05:21.546Z,75.05
2018-04-23T23:07:50.021Z,75.25
2018-04-23T23:10:18.446Z,74.97
2018-04-23T23:12:48.990Z,75.34
2018-04-23T23:15:19.541Z,75.63
2018-04-23T23:17:47.994Z,75.31
2018-04-23T23:20:18.526Z,75.58
2018-04-23T23:22:47.022Z,76.03
2018-04-23T23:25:15.793Z,76.20
2018-04-23T23:27:44.194Z,76.13
2018-04-23T23:30:14.807Z,76.31
2018-04-23T23:32:43.591Z,76.74
2018-04-23T23:35:12.001Z,76.63
2018-04-23T23:37:42.495Z,76.94
2018-04-23T23:40:13.083Z,76.78
2018-04-23T23:42:41.535Z,76.70
2018-04-23T23:45:10.006Z,76.88
2018-04-23T23:47:38.409Z,76.67
2018-04-23T23:50:07.099Z,76.89
2018-04-23T23:52:35.579Z,76.95
2018-04-23T23:55:04.004Z,76.74
2018-04-23T23:57:32.515Z,76.87
